La Puente, CA (91747)

3:01 AM PST on February 10, 2016 (GMT -0800)
Daytona Ave., Pete & Katie's House | | Change Station
CLOSE
Current Station
Personal Weather Station
Location: Hacienda Heights, CA
Elevation: 640 ft
Nearby Weather Stations

Elev 640 ft 33.99 °N, 117.99 °W | Updated 20 seconds ago

Clear
Clear
63.7 °F
Feels Like 63.7 °F
N
2.7
Wind Variable Wind from West
Gusts 4.9 mph

Today
High -- | Low -- °F
--% Chance of Precip.
Yesterday
High -- | Low -- °F
Precip. -- in
Pressure 30.09 in
Visibility 10.0 miles
Clouds Clear
Dew Point 30 °F
Humidity 28%
Rainfall 0.00 in
Snow Depth Not available.
6:41 AM 5:30 PM
Waxing Crescent, 5% visible
METAR KFUL 101053Z 08005KT 10SM CLR 14/01 A3010 RMK AO2 SLP190 T01390006
Pressure 30.09 in
Visibility 10.0 miles
Clouds Clear
Dew Point 30 °F
Humidity 28%
Rainfall 0.00 in
Snow Depth Not available.
6:41 AM 5:30 PM
Waxing Crescent, 5% visible
METAR KFUL 101053Z 08005KT 10SM CLR 14/01 A3010 RMK AO2 SLP190 T01390006

10-Day Weather Forecast

Almanac

Astronomy

Feb. 10, 2016 Rise Set
Actual Time
Civil Twilight
Nautical Twilight
Astronomical Twilight
Moon
Length of Visible Light
Length of Day
Tomorrow will be .
, % of the Moon is Illuminated

Today's Extremes

State Highs State Lows

Community

WunderPhotos

Upload Photos

1,891,830 photos uploaded!

WunderBlog® & News

Nearby

Air Quality

  Air Quality AQ Index Pollutant
Not available.

Snow Depth

Station Depth Elevation

Earthquake Activity

City Distance Mag. Time & Date
Minimum magnitude displayed is 2.5.

Coastal Water Temperatures

Place Temperature

Stations

Nearby Weather Stations

Station Location Temp. Windchill Dew Point Humidity Wind Precip. Elev Updated Type
                   

Watches & Warnings

There are currently no watches in effect.